createdAt,value
2018-09-15T00:00:48.518Z,4.43
2018-09-15T00:03:17.216Z,4.10
2018-09-15T00:05:46.032Z,8.03
2018-09-15T00:08:14.971Z,4.93
2018-09-15T00:10:43.604Z,5.60
2018-09-15T00:13:12.813Z,4.93
2018-09-15T00:15:41.404Z,4.33
2018-09-15T00:18:12.167Z,6.70
2018-09-15T00:20:41.032Z,4.67
2018-09-15T00:23:10.868Z,3.60
2018-09-15T00:25:40.254Z,4.87
2018-09-15T00:28:09.738Z,5.13
2018-09-15T00:30:38.640Z,3.53
2018-09-15T00:33:07.287Z,3.73
2018-09-15T00:35:36.121Z,3.83
2018-09-15T00:38:05.011Z,4.93
2018-09-15T00:40:33.995Z,3.83
2018-09-15T00:43:02.722Z,5.57
2018-09-15T00:45:31.653Z,8.53
2018-09-15T00:48:00.293Z,5.50
2018-09-15T00:50:29.230Z,4.67
2018-09-15T00:52:57.930Z,8.63
2018-09-15T00:55:26.687Z,4.33
2018-09-15T00:57:55.358Z,4.63
2018-09-15T01:00:24.391Z,5.17
2018-09-15T01:02:53.409Z,3.20
2018-09-15T01:05:22.091Z,4.67
2018-09-15T01:07:51.009Z,8.30
2018-09-15T01:10:19.684Z,4.27
2018-09-15T01:12:48.685Z,4.57
2018-09-15T01:15:17.302Z,7.03
2018-09-15T01:17:46.039Z,5.73
2018-09-15T01:20:14.814Z,3.73
2018-09-15T01:22:43.498Z,5.67
2018-09-15T01:25:12.152Z,4.60
2018-09-15T01:27:40.853Z,5.33
2018-09-15T01:30:09.699Z,6.30
2018-09-15T01:32:38.524Z,4.70
2018-09-15T01:35:07.454Z,3.30
2018-09-15T01:37:36.168Z,3.90
2018-09-15T01:40:05.153Z,5.77
2018-09-15T01:42:34.043Z,5.00
2018-09-15T01:45:02.630Z,3.23
2018-09-15T01:47:31.477Z,5.23
2018-09-15T01:50:00.238Z,3.83
2018-09-15T01:52:29.020Z,4.20
2018-09-15T01:54:57.778Z,4.97
2018-09-15T01:57:26.965Z,2.83
2018-09-15T01:59:55.665Z,5.00
2018-09-15T02:02:24.836Z,4.63
2018-09-15T02:04:53.678Z,2.97
2018-09-15T02:07:22.407Z,7.70
2018-09-15T02:09:51.023Z,5.73
2018-09-15T02:12:20.001Z,3.30
2018-09-15T02:14:49.090Z,10.33
2018-09-15T02:17:17.753Z,27.87
2018-09-15T02:19:46.618Z,34.67
2018-09-15T02:22:22.109Z,26.77
2018-09-15T02:24:50.724Z,33.03
2018-09-15T02:27:19.684Z,20.10
2018-09-15T02:29:48.263Z,40.60
2018-09-15T02:32:16.952Z,9.33
2018-09-15T02:34:45.734Z,12.37
2018-09-15T02:37:14.778Z,15.07
2018-09-15T02:39:43.775Z,13.70
2018-09-15T02:42:12.584Z,13.73
2018-09-15T02:44:41.538Z,9.30
2018-09-15T02:47:10.267Z,8.73
2018-09-15T02:49:39.307Z,15.27
2018-09-15T02:52:08.201Z,15.87
2018-09-15T02:54:37.135Z,9.67
2018-09-15T02:57:05.940Z,15.03
2018-09-15T02:59:34.867Z,17.77
2018-09-15T03:02:03.519Z,27.53
2018-09-15T03:04:32.453Z,37.70
2018-09-15T03:07:01.163Z,31.10
2018-09-15T03:09:29.903Z,29.57
2018-09-15T03:11:59.014Z,42.30
2018-09-15T03:14:27.925Z,25.07
2018-09-15T03:16:56.780Z,51.80
2018-09-15T03:19:25.711Z,70.50
2018-09-15T03:21:54.581Z,52.43
2018-09-15T03:24:23.836Z,55.60
2018-09-15T03:26:52.535Z,99.63
2018-09-15T03:29:21.348Z,76.40
2018-09-15T03:31:50.096Z,73.53
2018-09-15T03:34:18.871Z,122.37
2018-09-15T03:36:47.834Z,91.63
2018-09-15T03:39:16.580Z,75.67
2018-09-15T03:41:45.435Z,88.87
2018-09-15T03:44:14.089Z,59.77
2018-09-15T03:46:42.736Z,112.43
2018-09-15T03:49:11.467Z,69.37
2018-09-15T03:51:40.148Z,70.00
2018-09-15T03:54:09.537Z,48.00
2018-09-15T03:56:38.299Z,97.23
2018-09-15T03:59:07.107Z,60.57
2018-09-15T04:01:36.000Z,86.90
2018-09-15T04:04:04.970Z,127.23
2018-09-15T04:06:33.954Z,38.47
2018-09-15T04:09:02.890Z,125.53
2018-09-15T04:11:31.735Z,104.20
2018-09-15T04:14:00.722Z,57.47
2018-09-15T04:16:30.133Z,64.43
2018-09-15T04:18:58.933Z,107.87
2018-09-15T04:21:27.736Z,81.47
2018-09-15T04:23:56.594Z,100.90
2018-09-15T04:26:25.454Z,82.60
2018-09-15T04:28:54.085Z,76.67
2018-09-15T04:31:22.687Z,45.63
2018-09-15T04:33:51.453Z,62.33
2018-09-15T04:36:20.163Z,84.43
2018-09-15T04:38:49.279Z,105.17
2018-09-15T04:41:18.073Z,101.87
2018-09-15T04:43:46.935Z,72.57
2018-09-15T04:46:15.680Z,80.77
2018-09-15T04:48:44.524Z,89.23
2018-09-15T04:51:13.462Z,89.70
2018-09-15T04:53:42.474Z,85.57
2018-09-15T04:56:11.254Z,48.30
2018-09-15T04:58:40.141Z,62.60
2018-09-15T05:01:08.782Z,46.37
2018-09-15T05:03:37.565Z,86.43
2018-09-15T05:06:06.523Z,88.87
2018-09-15T05:08:35.331Z,37.50
2018-09-15T05:11:04.175Z,53.40
2018-09-15T05:13:32.921Z,31.13
2018-09-15T05:16:01.730Z,72.27
2018-09-15T05:18:30.515Z,97.67
2018-09-15T05:20:59.303Z,100.60
2018-09-15T05:23:28.011Z,93.70
2018-09-15T05:25:56.936Z,84.73
2018-09-15T05:28:25.772Z,67.30
2018-09-15T05:30:54.400Z,46.80
2018-09-15T05:33:23.231Z,25.07
2018-09-15T05:35:52.280Z,42.50
2018-09-15T05:38:21.289Z,86.07
2018-09-15T05:40:50.341Z,71.83
2018-09-15T05:43:19.088Z,73.77
2018-09-15T05:45:47.919Z,53.93
2018-09-15T05:48:16.607Z,81.17
2018-09-15T05:50:45.205Z,54.93
2018-09-15T05:53:13.877Z,15.93
2018-09-15T05:55:42.794Z,9.33
2018-09-15T05:58:11.694Z,17.50
2018-09-15T06:00:40.642Z,6.60
2018-09-15T06:03:09.266Z,7.50
2018-09-15T06:05:37.937Z,7.33
2018-09-15T06:08:07.268Z,6.63
2018-09-15T06:10:36.137Z,6.63
2018-09-15T06:13:04.916Z,6.60
2018-09-15T06:15:33.644Z,8.13
2018-09-15T06:18:02.528Z,9.17
2018-09-15T06:20:31.189Z,7.80
2018-09-15T06:23:00.030Z,5.40
2018-09-15T06:25:28.740Z,6.53
2018-09-15T06:27:57.336Z,7.57
2018-09-15T06:30:26.475Z,10.53
2018-09-15T06:32:55.061Z,7.67
2018-09-15T06:35:23.920Z,8.77
2018-09-15T06:37:52.742Z,9.27
2018-09-15T06:40:21.605Z,6.80
2018-09-15T06:42:50.600Z,10.30
2018-09-15T06:45:19.622Z,8.80
2018-09-15T06:47:48.597Z,8.23
2018-09-15T06:50:17.322Z,7.77
2018-09-15T06:52:46.011Z,6.87
2018-09-15T06:55:14.689Z,6.83
2018-09-15T06:57:43.712Z,11.17
2018-09-15T07:00:12.507Z,9.67
2018-09-15T07:02:41.308Z,8.60
2018-09-15T07:05:10.159Z,4.17
2018-09-15T07:07:38.833Z,6.10
2018-09-15T07:10:07.541Z,4.20
2018-09-15T07:12:36.447Z,4.80
2018-09-15T07:15:05.206Z,3.17
2018-09-15T07:17:34.102Z,2.93
2018-09-15T07:20:02.914Z,3.27
2018-09-15T07:22:31.553Z,2.33
2018-09-15T07:25:00.417Z,2.90
2018-09-15T07:27:29.169Z,3.47
2018-09-15T07:29:57.776Z,3.83
2018-09-15T07:32:26.844Z,4.67
2018-09-15T07:34:55.893Z,4.37
2018-09-15T07:37:24.866Z,3.80
2018-09-15T07:39:53.550Z,2.47
2018-09-15T07:42:22.406Z,2.50
2018-09-15T07:44:51.432Z,3.13
2018-09-15T07:47:20.312Z,2.13
2018-09-15T07:49:49.019Z,1.87
2018-09-15T07:52:17.812Z,5.43
2018-09-15T07:54:46.659Z,3.17
2018-09-15T07:57:15.457Z,2.43
2018-09-15T07:59:44.500Z,2.80
2018-09-15T08:02:23.364Z,4.23
2018-09-15T08:04:52.721Z,4.90
2018-09-15T08:07:21.501Z,2.83
2018-09-15T08:09:50.225Z,2.30
2018-09-15T08:12:19.627Z,3.70
2018-09-15T08:14:48.722Z,5.33
2018-09-15T08:17:17.470Z,3.97
2018-09-15T08:19:46.184Z,2.93
2018-09-15T08:22:14.942Z,3.50
2018-09-15T08:24:43.951Z,4.23
2018-09-15T08:27:12.951Z,3.83
2018-09-15T08:29:41.803Z,2.03
2018-09-15T08:32:10.833Z,2.20
2018-09-15T08:34:39.582Z,2.17
2018-09-15T08:37:08.576Z,2.30
2018-09-15T08:39:37.470Z,2.60
2018-09-15T08:42:07.062Z,2.67
2018-09-15T08:44:35.962Z,4.80
2018-09-15T08:47:04.671Z,4.37
2018-09-15T08:49:33.451Z,4.20
2018-09-15T08:52:02.262Z,5.07
2018-09-15T08:54:31.084Z,1.67
2018-09-15T08:57:00.096Z,3.90
2018-09-15T08:59:28.794Z,3.83
2018-09-15T09:01:57.663Z,2.87
2018-09-15T09:04:26.368Z,4.03
2018-09-15T09:06:54.996Z,3.20
2018-09-15T09:09:23.868Z,4.27
2018-09-15T09:11:52.492Z,3.67
2018-09-15T09:14:21.314Z,3.53
2018-09-15T09:16:50.155Z,2.97
2018-09-15T09:19:21.619Z,4.77
2018-09-15T09:21:50.602Z,4.07
2018-09-15T09:24:19.357Z,2.97
2018-09-15T09:26:48.038Z,3.53
2018-09-15T09:29:16.742Z,4.80
2018-09-15T09:31:45.600Z,4.00
2018-09-15T09:34:14.411Z,1.73
2018-09-15T09:36:43.176Z,2.03
2018-09-15T09:39:13.224Z,2.53
2018-09-15T09:41:42.876Z,2.53
2018-09-15T09:44:11.697Z,1.57
2018-09-15T09:46:40.445Z,2.70
2018-09-15T09:49:09.600Z,3.83
2018-09-15T09:51:38.269Z,2.90
2018-09-15T09:54:07.467Z,2.67
2018-09-15T09:56:36.337Z,0.77
2018-09-15T09:59:05.437Z,1.13
2018-09-15T10:01:39.515Z,2.13
2018-09-15T10:04:08.160Z,1.00
2018-09-15T10:06:37.007Z,0.83
2018-09-15T10:09:08.852Z,2.47
2018-09-15T10:11:38.596Z,0.80
2018-09-15T10:14:07.561Z,0.53
2018-09-15T10:16:36.377Z,1.13
2018-09-15T10:19:05.201Z,1.67
2018-09-15T10:21:33.947Z,2.80
2018-09-15T10:24:05.888Z,1.20
2018-09-15T10:26:37.219Z,1.13
2018-09-15T10:29:09.179Z,0.83
2018-09-15T10:31:41.296Z,0.90
2018-09-15T10:34:11.728Z,0.40
2018-09-15T10:36:41.085Z,0.90
2018-09-15T10:39:12.188Z,3.53
2018-09-15T10:41:40.963Z,1.13
2018-09-15T10:44:10.475Z,0.80
2018-09-15T10:46:43.188Z,0.90
2018-09-15T10:49:13.639Z,0.67
2018-09-15T10:51:43.772Z,1.73
2018-09-15T10:54:13.950Z,2.60
2018-09-15T10:56:43.386Z,4.83
2018-09-15T10:59:13.143Z,2.20
2018-09-15T11:01:42.061Z,0.93
2018-09-15T11:04:10.774Z,2.10
2018-09-15T11:06:39.460Z,0.60
2018-09-15T11:09:09.787Z,0.50
2018-09-15T11:11:38.517Z,0.53
2018-09-15T11:14:07.411Z,2.57
2018-09-15T11:16:36.327Z,1.73
2018-09-15T11:19:05.055Z,2.03
2018-09-15T11:21:33.689Z,0.50
2018-09-15T11:24:02.438Z,0.73
2018-09-15T11:26:31.420Z,0.60
2018-09-15T11:29:00.117Z,0.90
2018-09-15T11:31:28.894Z,0.73
2018-09-15T11:33:57.592Z,2.07
2018-09-15T11:36:26.487Z,0.43
2018-09-15T11:38:55.190Z,0.60
2018-09-15T11:41:24.043Z,0.30
2018-09-15T11:43:53.014Z,0.87
2018-09-15T11:46:21.740Z,1.30
2018-09-15T11:48:50.735Z,1.10
2018-09-15T11:51:26.180Z,0.50
2018-09-15T11:53:55.125Z,3.20
2018-09-15T11:56:23.730Z,0.80
2018-09-15T11:58:52.530Z,0.93
2018-09-15T12:01:21.602Z,0.40
2018-09-15T12:03:50.272Z,0.47
2018-09-15T12:06:19.224Z,0.50
2018-09-15T12:08:47.928Z,0.30
2018-09-15T12:11:16.804Z,0.20
2018-09-15T12:13:45.413Z,0.57
2018-09-15T12:16:14.211Z,0.13
2018-09-15T12:18:42.928Z,0.47
2018-09-15T12:21:11.747Z,0.87
2018-09-15T12:23:40.488Z,1.47
2018-09-15T12:26:09.436Z,0.10
2018-09-15T12:28:38.187Z,2.83
2018-09-15T12:31:07.146Z,0.20
2018-09-15T12:33:35.999Z,0.30
2018-09-15T12:36:04.711Z,0.20
2018-09-15T12:38:33.470Z,0.70
2018-09-15T12:41:02.282Z,0.20
2018-09-15T12:43:31.185Z,1.43
2018-09-15T12:45:59.973Z,0.10
2018-09-15T12:48:28.857Z,0.20
2018-09-15T12:50:58.065Z,0.37
2018-09-15T12:53:26.780Z,0.30
2018-09-15T12:55:55.531Z,0.30
2018-09-15T12:58:24.299Z,1.07
2018-09-15T13:00:53.274Z,0.73
2018-09-15T13:03:22.058Z,0.20
2018-09-15T13:05:51.051Z,0.20
2018-09-15T13:08:19.765Z,1.03
2018-09-15T13:10:48.658Z,0.20
2018-09-15T13:13:17.395Z,0.10
2018-09-15T13:15:46.263Z,0.17
2018-09-15T13:18:14.957Z,0.40
2018-09-15T13:20:43.724Z,0.27
2018-09-15T13:23:12.610Z,1.53
2018-09-15T13:25:41.383Z,0.20
2018-09-15T13:28:10.094Z,0.10
2018-09-15T13:30:38.857Z,0.20
2018-09-15T13:33:07.753Z,0.10
2018-09-15T13:35:36.479Z,0.47
2018-09-15T13:38:05.192Z,0.20
2018-09-15T13:40:34.075Z,0.30
2018-09-15T13:43:03.174Z,0.30
2018-09-15T13:45:31.907Z,0.30
2018-09-15T13:48:00.745Z,0.10
2018-09-15T13:50:30.032Z,0.43
2018-09-15T13:52:58.732Z,0.37
2018-09-15T13:55:27.515Z,0.50
2018-09-15T13:57:56.317Z,0.30
2018-09-15T14:00:25.186Z,1.33
2018-09-15T14:02:54.196Z,0.30
2018-09-15T14:05:23.455Z,0.17
2018-09-15T14:07:52.258Z,0.20
2018-09-15T14:10:21.408Z,0.20
2018-09-15T14:12:50.378Z,1.97
2018-09-15T14:15:19.167Z,0.30
2018-09-15T14:17:48.130Z,2.83
2018-09-15T14:20:17.013Z,0.00
2018-09-15T14:22:46.045Z,0.20
2018-09-15T14:25:14.693Z,0.10
2018-09-15T14:27:43.910Z,0.20
2018-09-15T14:30:12.929Z,0.83
2018-09-15T14:32:41.940Z,0.57
2018-09-15T14:35:10.618Z,0.30
2018-09-15T14:37:39.360Z,0.53
2018-09-15T14:40:08.115Z,2.23
2018-09-15T14:42:36.975Z,1.70
2018-09-15T14:45:05.670Z,0.93
2018-09-15T14:47:34.519Z,0.20
2018-09-15T14:50:03.428Z,0.30
2018-09-15T14:52:32.181Z,0.20
2018-09-15T14:55:00.947Z,1.60
2018-09-15T14:57:29.878Z,1.60
2018-09-15T14:59:58.833Z,0.20
2018-09-15T15:02:27.573Z,0.63
2018-09-15T15:04:56.286Z,0.20
2018-09-15T15:07:24.999Z,2.00
2018-09-15T15:09:53.851Z,0.10
2018-09-15T15:12:22.705Z,0.77
2018-09-15T15:14:52.170Z,2.60
2018-09-15T15:17:21.258Z,0.07
2018-09-15T15:19:50.475Z,1.43
2018-09-15T15:22:19.212Z,0.30
2018-09-15T15:24:48.194Z,0.10
2018-09-15T15:27:16.950Z,0.20
2018-09-15T15:29:45.692Z,0.40
2018-09-15T15:32:14.554Z,0.10
2018-09-15T15:34:43.478Z,0.37
2018-09-15T15:37:12.232Z,0.40
2018-09-15T15:39:41.190Z,0.97
2018-09-15T15:42:10.035Z,0.60
2018-09-15T15:44:38.763Z,0.83
2018-09-15T15:47:07.483Z,0.60
2018-09-15T15:49:36.231Z,0.10
2018-09-15T15:52:05.057Z,0.60
2018-09-15T15:54:33.799Z,0.20
2018-09-15T15:57:02.706Z,0.53
2018-09-15T15:59:31.709Z,0.20
2018-09-15T16:02:00.410Z,0.20
2018-09-15T16:04:29.413Z,2.20
2018-09-15T16:06:59.469Z,1.10
2018-09-15T16:09:28.261Z,0.57
2018-09-15T16:11:56.955Z,0.33
2018-09-15T16:14:25.683Z,0.20
2018-09-15T16:16:54.730Z,0.20
2018-09-15T16:19:23.796Z,1.80
2018-09-15T16:21:52.673Z,0.00
2018-09-15T16:24:21.798Z,0.00
2018-09-15T16:26:50.533Z,0.20
2018-09-15T16:29:19.800Z,1.80
2018-09-15T16:31:48.619Z,0.10
2018-09-15T16:34:17.417Z,1.60
2018-09-15T16:36:46.390Z,2.67
2018-09-15T16:39:15.384Z,0.10
2018-09-15T16:41:44.190Z,1.73
2018-09-15T16:44:13.064Z,1.30
2018-09-15T16:46:42.801Z,0.20
2018-09-15T16:49:11.549Z,1.80
2018-09-15T16:51:40.551Z,0.50
2018-09-15T16:54:09.298Z,0.93
2018-09-15T16:56:38.487Z,1.23
2018-09-15T16:59:08.407Z,1.00
2018-09-15T17:01:37.305Z,0.30
2018-09-15T17:04:06.384Z,2.20
2018-09-15T17:06:35.293Z,0.10
2018-09-15T17:09:05.290Z,0.20
2018-09-15T17:11:34.204Z,0.60
2018-09-15T17:14:03.255Z,0.20
2018-09-15T17:16:32.336Z,0.20
2018-09-15T17:19:01.033Z,0.20
2018-09-15T17:21:30.182Z,0.20
2018-09-15T17:23:59.004Z,0.30
2018-09-15T17:26:27.912Z,0.20
2018-09-15T17:28:56.840Z,0.50
2018-09-15T17:31:25.961Z,0.67
2018-09-15T17:33:54.852Z,0.47
2018-09-15T17:36:23.740Z,0.40
2018-09-15T17:38:52.706Z,2.60
2018-09-15T17:41:21.527Z,0.20
2018-09-15T17:43:50.438Z,0.10
2018-09-15T17:46:19.311Z,0.10
2018-09-15T17:48:48.007Z,0.67
2018-09-15T17:51:16.841Z,0.13
2018-09-15T17:53:45.726Z,1.80
2018-09-15T17:56:15.089Z,0.10
2018-09-15T17:58:43.917Z,0.83
2018-09-15T18:01:12.687Z,0.60
2018-09-15T18:03:41.627Z,0.40
2018-09-15T18:06:10.396Z,0.50
2018-09-15T18:08:39.101Z,0.60
2018-09-15T18:11:08.011Z,0.33
2018-09-15T18:13:36.837Z,0.40
2018-09-15T18:16:05.661Z,0.20
2018-09-15T18:18:34.589Z,0.10
2018-09-15T18:21:03.376Z,2.17
2018-09-15T18:23:32.489Z,0.10
2018-09-15T18:26:01.215Z,0.10
2018-09-15T18:28:30.580Z,0.60
2018-09-15T18:30:59.212Z,0.30
2018-09-15T18:33:30.281Z,1.60
2018-09-15T18:35:59.141Z,0.23
2018-09-15T18:38:27.889Z,0.13
2018-09-15T18:40:56.831Z,0.10
2018-09-15T18:43:26.313Z,0.10
2018-09-15T18:45:55.077Z,0.87
2018-09-15T18:48:24.283Z,0.20
2018-09-15T18:50:52.922Z,0.03
2018-09-15T18:53:22.305Z,0.47
2018-09-15T18:55:51.093Z,0.10
2018-09-15T18:58:20.087Z,0.47
2018-09-15T19:00:48.966Z,0.27
2018-09-15T19:03:18.268Z,0.10
2018-09-15T19:05:47.730Z,0.10
2018-09-15T19:08:16.515Z,0.10
2018-09-15T19:10:45.207Z,0.07
2018-09-15T19:13:14.032Z,0.20
2018-09-15T19:15:42.916Z,0.40
2018-09-15T19:18:11.969Z,1.53
2018-09-15T19:20:41.268Z,0.20
2018-09-15T19:23:09.969Z,0.60
2018-09-15T19:25:38.858Z,0.30
2018-09-15T19:28:07.675Z,0.80
2018-09-15T19:30:36.612Z,0.67
2018-09-15T19:33:05.758Z,4.53
2018-09-15T19:35:34.663Z,0.63
2018-09-15T19:38:03.373Z,0.83
2018-09-15T19:40:32.804Z,1.20
2018-09-15T19:43:01.860Z,0.40
2018-09-15T19:45:31.083Z,0.10
2018-09-15T19:48:00.158Z,0.23
2018-09-15T19:50:28.930Z,0.33
2018-09-15T19:52:57.945Z,0.67
2018-09-15T19:55:27.147Z,0.57
2018-09-15T19:57:55.984Z,0.80
2018-09-15T20:00:24.819Z,3.53
2018-09-15T20:02:53.603Z,0.30
2018-09-15T20:05:22.374Z,0.87
2018-09-15T20:07:51.230Z,0.60
2018-09-15T20:10:20.106Z,0.20
2018-09-15T20:12:48.988Z,0.50
2018-09-15T20:15:27.623Z,0.83
2018-09-15T20:17:55.178Z,1.07
2018-09-15T20:20:23.342Z,1.30
2018-09-15T20:22:53.616Z,0.57
2018-09-15T20:25:22.372Z,0.57
2018-09-15T20:27:51.277Z,0.20
2018-09-15T20:30:20.193Z,0.67
2018-09-15T20:32:49.006Z,1.23
2018-09-15T20:35:17.677Z,1.27
2018-09-15T20:37:46.476Z,0.90
2018-09-15T20:40:15.427Z,0.20
2018-09-15T20:42:44.328Z,1.90
2018-09-15T20:45:13.018Z,0.43
2018-09-15T20:47:41.771Z,0.43
2018-09-15T20:50:10.449Z,2.13
2018-09-15T20:52:39.844Z,2.00
2018-09-15T20:55:09.011Z,0.93
2018-09-15T20:57:38.079Z,2.23
2018-09-15T21:00:08.428Z,0.40
2018-09-15T21:02:37.111Z,1.00
2018-09-15T21:05:06.541Z,0.67
2018-09-15T21:07:35.636Z,0.93
2018-09-15T21:10:04.732Z,0.43
2018-09-15T21:12:33.818Z,0.67
2018-09-15T21:15:02.823Z,0.73
2018-09-15T21:17:31.946Z,1.03
2018-09-15T21:20:00.796Z,0.90
2018-09-15T21:22:29.561Z,0.90
2018-09-15T21:24:58.537Z,1.20
2018-09-15T21:27:27.527Z,1.53
2018-09-15T21:29:56.149Z,0.20
2018-09-15T21:32:24.934Z,2.53
2018-09-15T21:34:54.137Z,0.63
2018-09-15T21:37:22.932Z,2.90
2018-09-15T21:39:51.672Z,0.20
2018-09-15T21:42:20.421Z,0.87
2018-09-15T21:44:49.350Z,1.60
2018-09-15T21:47:18.342Z,0.20
2018-09-15T21:49:47.408Z,0.87
2018-09-15T21:52:16.185Z,2.70
2018-09-15T21:54:44.955Z,1.83
2018-09-15T21:57:13.610Z,0.40
2018-09-15T21:59:42.724Z,0.67
2018-09-15T22:02:11.764Z,1.30
2018-09-15T22:04:40.916Z,0.30
2018-09-15T22:07:10.250Z,0.50
2018-09-15T22:09:39.446Z,2.37
2018-09-15T22:12:08.371Z,0.20
2018-09-15T22:14:37.365Z,0.67
2018-09-15T22:17:06.081Z,2.20
2018-09-15T22:19:35.001Z,2.30
2018-09-15T22:22:03.769Z,0.30
2018-09-15T22:24:32.427Z,1.07
2018-09-15T22:27:01.047Z,0.30
2018-09-15T22:29:29.716Z,0.93
2018-09-15T22:31:58.675Z,1.47
2018-09-15T22:34:27.343Z,0.20
2018-09-15T22:36:56.058Z,0.40
2018-09-15T22:39:25.096Z,0.20
2018-09-15T22:41:53.954Z,2.13
2018-09-15T22:44:22.670Z,0.10
2018-09-15T22:46:51.433Z,2.00
2018-09-15T22:49:20.104Z,0.23
2018-09-15T22:51:48.770Z,2.73
2018-09-15T22:54:17.726Z,0.37
2018-09-15T22:56:46.353Z,0.40
2018-09-15T22:59:15.162Z,1.13
2018-09-15T23:01:43.990Z,2.40
2018-09-15T23:04:14.323Z,0.77
2018-09-15T23:06:43.005Z,0.20
2018-09-15T23:09:12.611Z,0.30
2018-09-15T23:11:41.348Z,1.70
2018-09-15T23:14:10.126Z,0.20
2018-09-15T23:16:39.023Z,1.33
2018-09-15T23:19:07.954Z,0.37
2018-09-15T23:21:36.527Z,0.47
2018-09-15T23:24:05.245Z,0.87
2018-09-15T23:26:34.236Z,0.20
2018-09-15T23:29:03.036Z,0.20
2018-09-15T23:31:31.888Z,0.20
2018-09-15T23:34:00.560Z,0.13
2018-09-15T23:36:29.263Z,1.20
2018-09-15T23:38:58.437Z,0.43
2018-09-15T23:41:27.096Z,0.77
2018-09-15T23:43:55.848Z,1.47
2018-09-15T23:46:24.486Z,0.20
2018-09-15T23:48:53.218Z,0.17
2018-09-15T23:51:21.904Z,1.00
2018-09-15T23:53:50.743Z,0.20
2018-09-15T23:56:19.636Z,0.20
2018-09-15T23:58:48.490Z,1.63
